createdAt,value
2019-03-23T00:00:42.063Z,4.33
2019-03-23T00:01:51.075Z,4.34
2019-03-23T00:02:57.542Z,4.38
2019-03-23T00:04:04.246Z,4.38
2019-03-23T00:05:10.835Z,4.36
2019-03-23T00:06:17.585Z,4.36
2019-03-23T00:07:23.715Z,4.32
2019-03-23T00:08:30.142Z,4.26
2019-03-23T00:09:36.579Z,4.22
2019-03-23T00:10:45.647Z,4.21
2019-03-23T00:11:51.936Z,4.22
2019-03-23T00:12:58.902Z,4.24
2019-03-23T00:14:05.235Z,4.24
2019-03-23T00:15:12.376Z,4.19
2019-03-23T00:16:18.464Z,4.19
2019-03-23T00:17:24.475Z,4.19
2019-03-23T00:18:30.543Z,4.17
2019-03-23T00:19:38.164Z,4.19
2019-03-23T00:20:44.215Z,4.22
2019-03-23T00:21:50.564Z,4.22
2019-03-23T00:22:57.462Z,4.23
2019-03-23T00:24:04.225Z,4.22
2019-03-23T00:25:11.136Z,4.25
2019-03-23T00:26:17.616Z,4.25
2019-03-23T00:27:26.437Z,4.23
2019-03-23T00:28:33.592Z,4.20
2019-03-23T00:29:40.424Z,4.18
2019-03-23T00:30:47.356Z,4.22
2019-03-23T00:31:54.296Z,4.24
2019-03-23T00:33:01.059Z,4.27
2019-03-23T00:34:07.543Z,4.28
2019-03-23T00:35:14.463Z,4.31
2019-03-23T00:36:21.178Z,4.33
2019-03-23T00:37:27.064Z,4.30
2019-03-23T00:38:33.036Z,4.29
2019-03-23T00:39:40.937Z,4.27
2019-03-23T00:40:48.566Z,4.26
2019-03-23T00:41:54.619Z,4.28
2019-03-23T00:43:00.918Z,4.29
2019-03-23T00:44:07.628Z,4.32
2019-03-23T00:45:13.939Z,4.33
2019-03-23T00:46:20.082Z,4.36
2019-03-23T00:47:25.936Z,4.40
2019-03-23T00:48:32.337Z,4.49
2019-03-23T00:49:38.357Z,4.50
2019-03-23T00:50:44.365Z,4.51
2019-03-23T00:51:51.143Z,4.55
2019-03-23T00:53:00.317Z,4.60
2019-03-23T00:54:07.137Z,4.60
2019-03-23T00:55:13.418Z,4.61
2019-03-23T00:56:20.577Z,4.60
2019-03-23T00:57:28.237Z,4.59
2019-03-23T00:58:36.757Z,4.57
2019-03-23T00:59:45.738Z,4.57
2019-03-23T01:00:52.918Z,4.58
2019-03-23T01:01:59.868Z,4.58
2019-03-23T01:03:07.358Z,4.59
2019-03-23T01:04:14.464Z,4.62
2019-03-23T01:05:21.065Z,4.65
2019-03-23T01:06:30.198Z,4.68
2019-03-23T01:07:36.678Z,4.72
2019-03-23T01:08:42.638Z,4.75
2019-03-23T01:09:49.059Z,4.77
2019-03-23T01:10:55.077Z,4.76
2019-03-23T01:12:01.838Z,4.81
2019-03-23T01:13:07.959Z,4.84
2019-03-23T01:14:13.998Z,4.88
2019-03-23T01:15:20.418Z,4.93
2019-03-23T01:16:27.158Z,4.96
2019-03-23T01:17:34.885Z,4.98
2019-03-23T01:18:41.557Z,5.01
2019-03-23T01:19:48.025Z,5.02
2019-03-23T01:20:56.186Z,5.02
2019-03-23T01:22:04.358Z,5.01
2019-03-23T01:23:11.998Z,4.98
2019-03-23T01:24:19.157Z,4.96
2019-03-23T01:25:28.726Z,4.99
2019-03-23T01:26:35.922Z,4.98
2019-03-23T01:27:42.965Z,5.01
2019-03-23T01:28:49.405Z,5.05
2019-03-23T01:29:57.126Z,5.06
2019-03-23T01:31:03.638Z,5.07
2019-03-23T01:32:10.418Z,5.09
2019-03-23T01:33:17.426Z,5.14
2019-03-23T01:34:34.978Z,5.20
2019-03-23T01:35:41.998Z,5.26
2019-03-23T01:36:49.039Z,5.29
2019-03-23T01:37:55.299Z,5.34
2019-03-23T01:39:01.137Z,5.37
2019-03-23T01:40:09.788Z,5.37
2019-03-23T01:41:16.160Z,5.35
2019-03-23T01:42:23.819Z,5.36
2019-03-23T01:43:30.598Z,5.40
2019-03-23T01:44:36.526Z,5.41
2019-03-23T01:45:43.167Z,5.41
2019-03-23T01:46:49.661Z,5.43
2019-03-23T01:47:56.119Z,5.43
2019-03-23T01:49:02.346Z,5.46
2019-03-23T01:50:12.407Z,5.53
2019-03-23T01:51:18.908Z,5.52
2019-03-23T01:52:25.979Z,5.51
2019-03-23T01:53:32.661Z,5.53
2019-03-23T01:54:39.626Z,5.54
2019-03-23T01:55:46.560Z,5.56
2019-03-23T01:56:53.440Z,5.56
2019-03-23T01:58:01.172Z,5.54
2019-03-23T01:59:07.908Z,5.51
2019-03-23T02:00:15.667Z,5.51
2019-03-23T02:01:23.959Z,5.55
2019-03-23T02:02:32.421Z,5.54
2019-03-23T02:03:40.359Z,5.53
2019-03-23T02:04:48.306Z,5.51
2019-03-23T02:05:55.563Z,5.51
2019-03-23T02:07:02.159Z,5.50
2019-03-23T02:08:08.520Z,5.50
2019-03-23T02:09:14.339Z,5.49
2019-03-23T02:10:20.426Z,5.49
2019-03-23T02:11:26.759Z,5.53
2019-03-23T02:12:34.276Z,5.59
2019-03-23T02:13:40.159Z,5.65
2019-03-23T02:14:45.920Z,5.69
2019-03-23T02:15:52.204Z,5.68
2019-03-23T02:16:58.140Z,5.65
2019-03-23T02:18:04.389Z,5.65
2019-03-23T02:19:10.500Z,5.70
2019-03-23T02:20:16.541Z,5.72
2019-03-23T02:21:23.220Z,5.71
2019-03-23T02:22:30.240Z,5.71
2019-03-23T02:23:37.240Z,5.70
2019-03-23T02:24:44.501Z,5.71
2019-03-23T02:25:51.339Z,5.72
2019-03-23T02:26:59.182Z,5.72
2019-03-23T02:28:05.990Z,5.73
2019-03-23T02:29:12.740Z,5.73
2019-03-23T02:30:19.922Z,5.69
2019-03-23T02:31:27.761Z,5.67
2019-03-23T02:32:34.667Z,5.68
2019-03-23T02:33:43.289Z,5.69
2019-03-23T02:34:50.214Z,5.69
2019-03-23T02:35:57.127Z,5.72
2019-03-23T02:37:04.133Z,5.72
2019-03-23T02:38:10.133Z,5.70
2019-03-23T02:39:16.007Z,5.70
2019-03-23T02:40:21.845Z,5.72
2019-03-23T02:41:27.689Z,5.71
2019-03-23T02:42:33.488Z,5.70
2019-03-23T02:43:39.370Z,5.68
2019-03-23T02:44:45.282Z,5.65
2019-03-23T02:45:51.009Z,5.64
2019-03-23T02:46:56.935Z,5.65
2019-03-23T02:48:02.759Z,5.69
2019-03-23T02:49:08.635Z,5.72
2019-03-23T02:50:14.990Z,5.72
2019-03-23T02:51:21.279Z,5.70
2019-03-23T02:52:27.918Z,5.70
2019-03-23T02:53:34.704Z,5.68
2019-03-23T02:54:41.208Z,5.70
2019-03-23T02:55:47.830Z,5.71
2019-03-23T02:56:54.575Z,5.73
2019-03-23T02:58:02.967Z,5.72
2019-03-23T02:59:10.720Z,5.72
2019-03-23T03:00:17.609Z,5.71
2019-03-23T03:01:23.879Z,5.70
2019-03-23T03:02:30.847Z,5.70
2019-03-23T03:03:37.730Z,5.73
2019-03-23T03:04:44.858Z,5.72
2019-03-23T03:05:51.780Z,5.77
2019-03-23T03:06:57.652Z,5.80
2019-03-23T03:08:03.809Z,5.80
2019-03-23T03:09:09.617Z,5.81
2019-03-23T03:10:38.658Z,5.81
2019-03-23T03:11:44.440Z,5.81
2019-03-23T03:12:50.449Z,5.81
2019-03-23T03:13:56.267Z,5.82
2019-03-23T03:15:02.290Z,5.83
2019-03-23T03:16:08.218Z,5.82
2019-03-23T03:17:14.189Z,5.82
2019-03-23T03:18:20.085Z,5.83
2019-03-23T03:19:26.329Z,5.84
2019-03-23T03:20:32.509Z,5.82
2019-03-23T03:21:38.873Z,5.84
2019-03-23T03:22:45.657Z,5.85
2019-03-23T03:23:52.281Z,5.85
2019-03-23T03:24:58.869Z,5.88
2019-03-23T03:26:05.697Z,5.86
2019-03-23T03:27:12.940Z,5.86
2019-03-23T03:28:19.557Z,5.84
2019-03-23T03:29:26.149Z,5.83
2019-03-23T03:30:32.137Z,5.81
2019-03-23T03:31:39.292Z,5.82
2019-03-23T03:32:46.190Z,5.82
2019-03-23T03:33:52.907Z,5.82
2019-03-23T03:34:59.441Z,5.83
2019-03-23T03:36:05.951Z,5.81
2019-03-23T03:37:13.211Z,5.79
2019-03-23T03:38:19.689Z,5.80
2019-03-23T03:39:25.424Z,5.79
2019-03-23T03:40:31.233Z,5.83
2019-03-23T03:41:37.368Z,5.83
2019-03-23T03:42:43.242Z,5.86
2019-03-23T03:43:49.078Z,5.93
2019-03-23T03:44:54.911Z,5.94
2019-03-23T03:46:00.678Z,5.96
2019-03-23T03:47:06.520Z,5.97
2019-03-23T03:48:12.379Z,5.98
2019-03-23T03:49:18.257Z,6.02
2019-03-23T03:50:24.633Z,6.05
2019-03-23T03:51:30.931Z,6.05
2019-03-23T03:52:37.202Z,6.09
2019-03-23T03:53:43.640Z,6.08
2019-03-23T03:54:50.692Z,6.08
2019-03-23T03:55:57.710Z,6.13
2019-03-23T03:57:04.593Z,6.13
2019-03-23T03:58:11.230Z,6.12
2019-03-23T03:59:17.832Z,6.14
2019-03-23T04:00:24.779Z,6.13
2019-03-23T04:01:31.181Z,6.13
2019-03-23T04:02:38.811Z,6.14
2019-03-23T04:03:45.232Z,6.16
2019-03-23T04:04:52.892Z,6.16
2019-03-23T04:06:00.056Z,6.17
2019-03-23T04:07:06.761Z,6.21
2019-03-23T04:08:14.050Z,6.21
2019-03-23T04:09:19.770Z,6.26
2019-03-23T04:10:25.544Z,6.29
2019-03-23T04:11:31.402Z,6.32
2019-03-23T04:12:37.362Z,6.37
2019-03-23T04:13:44.443Z,6.39
2019-03-23T04:14:50.208Z,6.43
2019-03-23T04:15:56.078Z,6.47
2019-03-23T04:17:01.895Z,6.48
2019-03-23T04:18:07.825Z,6.50
2019-03-23T04:19:13.715Z,6.55
2019-03-23T04:20:20.581Z,6.57
2019-03-23T04:21:27.010Z,6.57
2019-03-23T04:22:33.777Z,6.58
2019-03-23T04:23:40.667Z,6.61
2019-03-23T04:24:47.074Z,6.58
2019-03-23T04:25:54.164Z,6.58
2019-03-23T04:27:01.679Z,6.59
2019-03-23T04:28:08.447Z,6.58
2019-03-23T04:29:15.440Z,6.58
2019-03-23T04:30:22.093Z,6.59
2019-03-23T04:31:29.446Z,6.59
2019-03-23T04:32:37.161Z,6.59
2019-03-23T04:33:43.719Z,6.60
2019-03-23T04:34:50.791Z,6.60
2019-03-23T04:35:57.775Z,6.58
2019-03-23T04:37:05.740Z,6.54
2019-03-23T04:38:22.697Z,6.57
2019-03-23T04:39:21.799Z,6.56
2019-03-23T04:40:27.830Z,6.54
2019-03-23T04:41:33.730Z,6.53
2019-03-23T04:42:39.617Z,6.53
2019-03-23T04:43:51.220Z,6.49
2019-03-23T04:44:57.146Z,6.50
2019-03-23T04:46:02.994Z,6.51
2019-03-23T04:47:08.831Z,6.54
2019-03-23T04:48:14.660Z,6.55
2019-03-23T04:49:20.469Z,6.57
2019-03-23T04:50:26.313Z,6.56
2019-03-23T04:51:33.074Z,6.57
2019-03-23T04:52:39.843Z,6.58
2019-03-23T04:53:47.339Z,6.57
2019-03-23T04:54:54.240Z,6.59
2019-03-23T04:56:00.244Z,6.56
2019-03-23T04:57:06.622Z,6.52
2019-03-23T04:58:15.172Z,6.53
2019-03-23T04:59:21.890Z,6.52
2019-03-23T05:00:28.851Z,6.55
2019-03-23T05:01:35.502Z,6.56
2019-03-23T05:02:41.752Z,6.57
2019-03-23T05:03:49.733Z,6.57
2019-03-23T05:04:56.941Z,6.57
2019-03-23T05:06:04.812Z,6.58
2019-03-23T05:07:11.373Z,6.59
2019-03-23T05:08:18.413Z,6.58
2019-03-23T05:09:24.574Z,6.59
2019-03-23T05:10:30.431Z,6.63
2019-03-23T05:11:36.283Z,6.65
2019-03-23T05:12:42.320Z,6.65
2019-03-23T05:13:52.192Z,6.65
2019-03-23T05:14:58.012Z,6.66
2019-03-23T05:16:04.123Z,6.64
2019-03-23T05:17:10.972Z,6.64
2019-03-23T05:18:17.079Z,6.65
2019-03-23T05:19:27.002Z,6.66
2019-03-23T05:20:34.621Z,6.65
2019-03-23T05:21:41.103Z,6.68
2019-03-23T05:22:47.871Z,6.71
2019-03-23T05:23:55.436Z,6.75
2019-03-23T05:25:02.085Z,6.77
2019-03-23T05:26:08.713Z,6.83
2019-03-23T05:27:15.624Z,6.87
2019-03-23T05:28:21.816Z,6.88
2019-03-23T05:29:28.183Z,6.90
2019-03-23T05:30:35.323Z,6.92
2019-03-23T05:31:42.133Z,6.90
2019-03-23T05:32:49.373Z,6.94
2019-03-23T05:33:55.994Z,7.01
2019-03-23T05:35:03.195Z,7.04
2019-03-23T05:36:09.444Z,7.04
2019-03-23T05:37:17.044Z,7.01
2019-03-23T05:38:24.072Z,7.00
2019-03-23T05:39:30.213Z,7.01
2019-03-23T05:40:36.022Z,6.98
2019-03-23T05:41:41.751Z,6.96
2019-03-23T05:42:47.744Z,7.00
2019-03-23T05:43:53.533Z,6.97
2019-03-23T05:44:59.393Z,6.95
2019-03-23T05:46:05.452Z,6.92
2019-03-23T05:47:11.483Z,6.94
2019-03-23T05:48:17.559Z,6.94
2019-03-23T05:49:23.347Z,6.95
2019-03-23T05:50:29.473Z,7.00
2019-03-23T05:51:36.196Z,7.03
2019-03-23T05:52:42.484Z,7.03
2019-03-23T05:53:49.175Z,7.05
2019-03-23T05:54:55.724Z,7.08
2019-03-23T05:56:02.634Z,7.11
2019-03-23T05:57:09.727Z,7.15
2019-03-23T05:58:15.994Z,7.18
2019-03-23T05:59:22.774Z,7.22
2019-03-23T06:00:29.425Z,7.28
2019-03-23T06:01:36.514Z,7.33
2019-03-23T06:02:42.984Z,7.40
2019-03-23T06:03:49.264Z,7.50
2019-03-23T06:05:07.064Z,7.58
2019-03-23T06:06:15.212Z,7.65
2019-03-23T06:07:35.235Z,7.63
2019-03-23T06:08:55.358Z,7.66
2019-03-23T06:10:07.832Z,7.72
2019-03-23T06:11:20.445Z,7.89
2019-03-23T06:12:26.331Z,8.01
2019-03-23T06:13:32.319Z,8.09
2019-03-23T06:14:38.270Z,8.17
2019-03-23T06:15:45.364Z,8.28
2019-03-23T06:16:51.306Z,8.45
2019-03-23T06:17:57.400Z,8.62
2019-03-23T06:19:03.185Z,8.75
2019-03-23T06:20:10.485Z,8.87
2019-03-23T06:21:16.336Z,9.02
2019-03-23T06:22:23.384Z,9.16
2019-03-23T06:23:29.685Z,9.30
2019-03-23T06:24:36.164Z,9.46
2019-03-23T06:25:42.933Z,9.63
2019-03-23T06:26:49.635Z,9.75
2019-03-23T06:27:56.485Z,9.94
2019-03-23T06:29:03.183Z,9.99
2019-03-23T06:30:12.043Z,10.23
2019-03-23T06:31:18.572Z,10.38
2019-03-23T06:32:24.726Z,10.53
2019-03-23T06:33:31.236Z,10.69
2019-03-23T06:34:40.148Z,10.86
2019-03-23T06:35:46.495Z,11.15
2019-03-23T06:36:53.237Z,11.58
2019-03-23T06:37:59.653Z,11.91
2019-03-23T06:39:07.555Z,12.20
2019-03-23T06:40:13.595Z,12.40
2019-03-23T06:41:19.643Z,12.39
2019-03-23T06:42:25.453Z,12.71
2019-03-23T06:43:32.715Z,12.98
2019-03-23T06:44:39.746Z,13.21
2019-03-23T06:45:46.025Z,13.34
2019-03-23T06:46:54.003Z,13.58
2019-03-23T06:48:03.965Z,13.84
2019-03-23T06:49:21.658Z,13.97
2019-03-23T06:50:34.407Z,14.03
2019-03-23T06:51:45.669Z,14.48
2019-03-23T06:53:04.289Z,15.12
2019-03-23T06:54:17.565Z,15.38
2019-03-23T06:55:24.494Z,15.93
2019-03-23T06:56:32.314Z,16.41
2019-03-23T06:57:38.767Z,16.88
2019-03-23T06:58:46.037Z,17.10
2019-03-23T06:59:56.645Z,17.54
2019-03-23T07:01:04.154Z,17.67
2019-03-23T07:02:31.645Z,18.08
2019-03-23T07:03:37.548Z,18.48
2019-03-23T07:04:46.380Z,18.46
2019-03-23T07:05:52.855Z,18.34
2019-03-23T07:06:59.608Z,18.47
2019-03-23T07:08:05.768Z,18.61
2019-03-23T07:09:16.316Z,18.65
2019-03-23T07:10:20.426Z,18.49
2019-03-23T07:11:26.367Z,17.86
2019-03-23T07:12:32.263Z,17.14
2019-03-23T07:13:38.260Z,16.46
2019-03-23T07:14:44.041Z,16.10
2019-03-23T07:15:49.984Z,15.69
2019-03-23T07:16:55.854Z,15.44
2019-03-23T07:18:01.711Z,15.26
2019-03-23T07:19:07.550Z,14.91
2019-03-23T07:20:14.580Z,14.68
2019-03-23T07:21:22.716Z,14.49
2019-03-23T07:22:29.146Z,14.33
2019-03-23T07:23:35.497Z,13.95
2019-03-23T07:25:03.247Z,13.63
2019-03-23T07:26:10.334Z,13.56
2019-03-23T07:27:16.614Z,13.30
2019-03-23T07:28:23.448Z,13.18
2019-03-23T07:29:30.198Z,13.25
2019-03-23T07:30:36.719Z,13.19
2019-03-23T07:31:44.121Z,13.15
2019-03-23T07:32:50.846Z,13.05
2019-03-23T07:33:58.300Z,12.91
2019-03-23T07:35:08.939Z,12.86
2019-03-23T07:36:15.669Z,12.78
2019-03-23T07:37:22.481Z,12.79
2019-03-23T07:38:29.459Z,12.74
2019-03-23T07:39:36.839Z,12.79
2019-03-23T07:40:42.847Z,12.76
2019-03-23T07:41:48.719Z,12.67
2019-03-23T07:42:54.881Z,12.62
2019-03-23T07:44:02.780Z,12.56
2019-03-23T07:45:11.932Z,12.52
2019-03-23T07:46:17.839Z,12.38
2019-03-23T07:47:23.880Z,12.40
2019-03-23T07:48:30.116Z,12.45
2019-03-23T07:49:36.210Z,12.46
2019-03-23T07:50:45.478Z,12.51
2019-03-23T07:51:51.460Z,12.60
2019-03-23T07:52:57.278Z,12.64
2019-03-23T07:54:05.798Z,12.63
2019-03-23T07:55:17.695Z,12.59
2019-03-23T07:56:24.757Z,12.62
2019-03-23T07:57:33.713Z,12.59
2019-03-23T07:58:39.939Z,12.56
2019-03-23T07:59:45.877Z,12.61
2019-03-23T08:00:53.077Z,12.60
2019-03-23T08:01:59.660Z,12.52
2019-03-23T08:03:06.360Z,12.51
2019-03-23T08:04:13.627Z,12.42
2019-03-23T08:05:20.230Z,12.39
2019-03-23T08:06:27.057Z,12.40
2019-03-23T08:07:33.897Z,12.38
2019-03-23T08:08:40.638Z,12.38
2019-03-23T08:09:47.548Z,12.38
2019-03-23T08:10:53.420Z,12.37
2019-03-23T08:12:01.260Z,12.33
2019-03-23T08:13:07.844Z,12.30
2019-03-23T08:14:13.981Z,12.32
2019-03-23T08:15:20.208Z,12.37
2019-03-23T08:16:26.397Z,12.43
2019-03-23T08:17:33.953Z,12.41
2019-03-23T08:18:39.871Z,12.44
2019-03-23T08:19:45.611Z,12.48
2019-03-23T08:20:51.850Z,12.56
2019-03-23T08:21:58.310Z,12.59
2019-03-23T08:23:04.308Z,12.60
2019-03-23T08:24:11.574Z,12.63
2019-03-23T08:26:04.272Z,12.79
2019-03-23T08:27:11.641Z,12.82
2019-03-23T08:28:20.452Z,12.75
2019-03-23T08:29:27.547Z,12.73
2019-03-23T08:30:34.442Z,12.70
2019-03-23T08:31:41.230Z,12.67
2019-03-23T08:32:52.987Z,12.65
2019-03-23T08:34:20.207Z,12.65
2019-03-23T08:35:27.262Z,12.64
2019-03-23T08:36:33.718Z,12.70
2019-03-23T08:37:41.101Z,12.68
2019-03-23T08:38:48.259Z,12.73
2019-03-23T08:39:54.891Z,12.82
2019-03-23T08:41:00.711Z,12.87
2019-03-23T08:42:06.841Z,12.91
2019-03-23T08:43:14.771Z,12.88
2019-03-23T08:44:21.031Z,12.90
2019-03-23T08:45:27.242Z,12.87
2019-03-23T08:46:33.501Z,12.88
2019-03-23T08:47:41.342Z,12.89
2019-03-23T08:48:48.751Z,12.95
2019-03-23T08:49:54.843Z,12.99
2019-03-23T08:51:01.804Z,13.08
2019-03-23T08:52:07.948Z,13.10
2019-03-23T08:53:13.911Z,13.08
2019-03-23T08:54:20.826Z,13.15
2019-03-23T08:55:27.512Z,13.22
2019-03-23T08:56:34.133Z,13.32
2019-03-23T08:57:41.478Z,13.37
2019-03-23T08:58:48.879Z,13.36
2019-03-23T08:59:57.233Z,13.36
2019-03-23T09:01:03.731Z,13.40
2019-03-23T09:02:27.032Z,13.50
2019-03-23T09:03:34.607Z,13.51
2019-03-23T09:04:41.188Z,13.53
2019-03-23T09:05:51.334Z,13.58
2019-03-23T09:06:57.322Z,13.58
2019-03-23T09:08:04.179Z,13.52
2019-03-23T09:09:11.112Z,13.53
2019-03-23T09:10:17.298Z,13.52
2019-03-23T09:11:27.033Z,13.59
2019-03-23T09:12:33.972Z,13.65
2019-03-23T09:13:40.986Z,13.69
2019-03-23T09:14:49.161Z,13.74
2019-03-23T09:15:55.792Z,13.72
2019-03-23T09:17:03.533Z,13.74
2019-03-23T09:18:10.494Z,13.73
2019-03-23T09:19:17.192Z,13.76
2019-03-23T09:20:23.809Z,13.80
2019-03-23T09:21:30.452Z,13.81
2019-03-23T09:22:37.832Z,13.86
2019-03-23T09:23:45.040Z,13.93
2019-03-23T09:24:56.981Z,13.95
2019-03-23T09:26:01.020Z,13.97
2019-03-23T09:27:08.433Z,14.00
2019-03-23T09:28:15.373Z,13.97
2019-03-23T09:29:22.164Z,13.99
2019-03-23T09:30:29.089Z,14.03
2019-03-23T09:31:35.693Z,14.02
2019-03-23T09:32:43.459Z,14.01
2019-03-23T09:33:51.001Z,14.06
2019-03-23T09:34:58.213Z,14.21
2019-03-23T09:36:04.992Z,14.27
2019-03-23T09:37:13.344Z,14.32
2019-03-23T09:38:20.260Z,14.36
2019-03-23T09:39:27.651Z,14.46
2019-03-23T09:40:34.852Z,14.48
2019-03-23T09:41:41.694Z,14.49
2019-03-23T09:42:49.120Z,14.52
2019-03-23T09:43:56.412Z,14.49
2019-03-23T09:45:03.744Z,14.48
2019-03-23T09:46:12.614Z,14.44
2019-03-23T09:47:20.641Z,14.46
2019-03-23T09:48:27.976Z,14.54
2019-03-23T09:49:35.039Z,14.56
2019-03-23T09:50:41.800Z,14.61
2019-03-23T09:51:48.701Z,14.64
2019-03-23T09:52:55.973Z,14.69
2019-03-23T09:54:03.780Z,14.81
2019-03-23T09:55:33.020Z,14.88
2019-03-23T09:56:39.180Z,14.89
2019-03-23T09:57:45.974Z,14.92
2019-03-23T09:58:53.753Z,14.91
2019-03-23T10:00:00.081Z,14.86
2019-03-23T10:01:08.030Z,14.80
2019-03-23T10:02:14.812Z,14.85
2019-03-23T10:03:21.430Z,14.95
2019-03-23T10:04:28.432Z,15.07
2019-03-23T10:05:35.631Z,15.13
2019-03-23T10:06:42.130Z,15.12
2019-03-23T10:07:49.166Z,15.18
2019-03-23T10:08:55.871Z,15.21
2019-03-23T10:10:02.410Z,15.24
2019-03-23T10:11:09.270Z,15.27
2019-03-23T10:12:15.983Z,15.26
2019-03-23T10:13:23.062Z,15.29
2019-03-23T10:14:29.905Z,15.39
2019-03-23T10:15:37.110Z,15.39
2019-03-23T10:16:43.790Z,15.41
2019-03-23T10:17:51.023Z,15.50
2019-03-23T10:18:58.731Z,15.53
2019-03-23T10:20:07.550Z,15.58
2019-03-23T10:21:15.783Z,15.58
2019-03-23T10:22:23.610Z,15.59
2019-03-23T10:23:31.223Z,15.58
2019-03-23T10:24:40.043Z,15.54
2019-03-23T10:25:47.283Z,15.53
2019-03-23T10:26:53.563Z,15.61
2019-03-23T10:28:00.350Z,15.67
2019-03-23T10:29:07.150Z,15.66
2019-03-23T10:30:13.298Z,15.67
2019-03-23T10:31:20.303Z,15.75
2019-03-23T10:32:27.705Z,15.79
2019-03-23T10:33:35.763Z,15.80
2019-03-23T10:34:42.877Z,15.82
2019-03-23T10:35:49.543Z,15.87
2019-03-23T10:36:56.311Z,15.90
2019-03-23T10:38:03.195Z,15.92
2019-03-23T10:39:10.287Z,15.93
2019-03-23T10:40:18.270Z,15.94
2019-03-23T10:41:25.514Z,15.96
2019-03-23T10:42:33.770Z,15.98
2019-03-23T10:43:40.190Z,15.98
2019-03-23T10:44:48.071Z,15.94
2019-03-23T10:45:55.494Z,15.94
2019-03-23T10:47:01.752Z,15.94
2019-03-23T10:48:09.471Z,15.98
2019-03-23T10:49:16.785Z,16.03
2019-03-23T10:50:23.491Z,16.09
2019-03-23T10:51:30.925Z,16.10
2019-03-23T10:52:37.825Z,16.12
2019-03-23T10:53:44.060Z,16.08
2019-03-23T10:54:51.191Z,16.13
2019-03-23T10:55:59.071Z,16.14
2019-03-23T10:57:05.094Z,16.11
2019-03-23T10:58:12.153Z,16.08
2019-03-23T10:59:19.624Z,16.03
2019-03-23T11:00:26.044Z,16.03
2019-03-23T11:01:33.273Z,16.06
2019-03-23T11:02:40.510Z,16.10
2019-03-23T11:03:46.925Z,16.12
2019-03-23T11:04:54.134Z,16.13
2019-03-23T11:06:01.185Z,16.20
2019-03-23T11:07:07.394Z,16.29
2019-03-23T11:08:35.812Z,16.33
2019-03-23T11:09:42.351Z,16.37
2019-03-23T11:10:49.188Z,16.38
2019-03-23T11:11:56.401Z,16.45
2019-03-23T11:13:03.346Z,16.50
2019-03-23T11:14:10.385Z,16.48
2019-03-23T11:15:19.032Z,16.50
2019-03-23T11:16:25.385Z,16.43
2019-03-23T11:17:32.791Z,16.43
2019-03-23T11:18:39.832Z,16.43
2019-03-23T11:19:45.752Z,16.49
2019-03-23T11:20:52.035Z,16.52
2019-03-23T11:21:59.014Z,16.54
2019-03-23T11:23:06.006Z,16.56
2019-03-23T11:24:11.905Z,16.58
2019-03-23T11:25:19.345Z,16.65
2019-03-23T11:26:28.128Z,16.69
2019-03-23T11:27:34.593Z,16.72
2019-03-23T11:28:41.165Z,16.74
2019-03-23T11:29:48.347Z,16.77
2019-03-23T11:30:55.525Z,16.83
2019-03-23T11:32:03.106Z,16.90
2019-03-23T11:33:09.940Z,16.96
2019-03-23T11:34:18.280Z,17.01
2019-03-23T11:35:25.716Z,17.02
2019-03-23T11:36:34.212Z,17.07
2019-03-23T11:37:40.933Z,17.12
2019-03-23T11:38:47.927Z,17.20
2019-03-23T11:39:56.885Z,17.20
2019-03-23T11:41:03.333Z,17.26
2019-03-23T11:42:11.833Z,17.25
2019-03-23T11:43:19.975Z,17.25
2019-03-23T11:44:26.286Z,17.28
2019-03-23T11:45:33.407Z,17.29
2019-03-23T11:46:41.436Z,17.27
2019-03-23T11:47:47.813Z,17.27
2019-03-23T11:48:55.476Z,17.23
2019-03-23T11:50:02.652Z,17.24
2019-03-23T11:51:09.649Z,17.24
2019-03-23T11:52:18.305Z,17.31
2019-03-23T11:53:25.922Z,17.31
2019-03-23T11:54:34.110Z,17.35
2019-03-23T11:55:43.055Z,17.38
2019-03-23T11:56:49.772Z,17.48
2019-03-23T11:57:55.854Z,17.54
2019-03-23T11:59:02.053Z,17.59
2019-03-23T12:00:12.672Z,17.61
2019-03-23T12:01:19.707Z,17.66
2019-03-23T12:02:27.055Z,17.68
2019-03-23T12:03:34.852Z,17.73
2019-03-23T12:04:41.585Z,17.78
2019-03-23T12:05:50.633Z,17.81
2019-03-23T12:06:58.935Z,17.80
2019-03-23T12:08:05.015Z,17.75
2019-03-23T12:09:11.620Z,17.69
2019-03-23T12:10:18.735Z,17.69
2019-03-23T12:11:25.335Z,17.63
2019-03-23T12:12:31.863Z,17.72
2019-03-23T12:13:39.495Z,17.84
2019-03-23T12:14:45.845Z,17.90
2019-03-23T12:15:53.063Z,17.90
2019-03-23T12:17:00.695Z,17.97
2019-03-23T12:18:08.796Z,18.02
2019-03-23T12:19:15.675Z,18.02
2019-03-23T12:20:22.895Z,18.14
2019-03-23T12:21:29.436Z,18.14
2019-03-23T12:22:36.343Z,18.13
2019-03-23T12:23:43.423Z,18.17
2019-03-23T12:24:51.736Z,18.14
2019-03-23T12:25:58.963Z,18.20
2019-03-23T12:27:07.544Z,18.21
2019-03-23T12:28:14.165Z,18.22
2019-03-23T12:29:20.896Z,18.34
2019-03-23T12:30:28.088Z,18.33
2019-03-23T12:31:33.996Z,18.36
2019-03-23T12:32:40.383Z,18.38
2019-03-23T12:33:47.503Z,18.38
2019-03-23T12:34:54.237Z,18.40
2019-03-23T12:36:01.356Z,18.33
2019-03-23T12:37:08.503Z,18.27
2019-03-23T12:38:14.751Z,18.29
2019-03-23T12:39:21.425Z,18.28
2019-03-23T12:40:28.576Z,18.26
2019-03-23T12:41:35.090Z,18.29
2019-03-23T12:42:42.143Z,18.30
2019-03-23T12:43:48.879Z,18.29
2019-03-23T12:44:55.336Z,18.31
2019-03-23T12:46:01.751Z,18.28
2019-03-23T12:47:08.416Z,18.22
2019-03-23T12:48:14.317Z,18.23
2019-03-23T12:49:20.824Z,18.19
2019-03-23T12:50:28.356Z,18.20
2019-03-23T12:51:34.516Z,18.25
2019-03-23T12:52:41.366Z,18.24
2019-03-23T12:53:48.645Z,18.25
2019-03-23T12:54:55.387Z,18.30
2019-03-23T12:56:02.384Z,18.39
2019-03-23T12:57:09.076Z,18.39
2019-03-23T12:58:16.626Z,18.36
2019-03-23T12:59:23.905Z,18.39
2019-03-23T13:00:30.963Z,18.42
2019-03-23T13:01:37.403Z,18.43
2019-03-23T13:02:45.638Z,18.50
2019-03-23T13:03:52.716Z,18.50
2019-03-23T13:04:58.923Z,18.51
2019-03-23T13:06:05.857Z,18.50
2019-03-23T13:07:13.904Z,18.48
2019-03-23T13:08:20.236Z,18.47
2019-03-23T13:09:27.484Z,18.48
2019-03-23T13:10:33.985Z,18.50
2019-03-23T13:11:40.316Z,18.54
2019-03-23T13:12:47.183Z,18.59
2019-03-23T13:13:55.457Z,18.61
2019-03-23T13:15:12.543Z,18.62
2019-03-23T13:16:19.204Z,18.64
2019-03-23T13:17:26.157Z,18.68
2019-03-23T13:18:32.425Z,18.73
2019-03-23T13:19:45.569Z,18.81
2019-03-23T13:20:51.737Z,18.85
2019-03-23T13:21:57.817Z,18.87
2019-03-23T13:23:05.066Z,18.88
2019-03-23T13:24:11.657Z,18.88
2019-03-23T13:25:19.419Z,18.84
2019-03-23T13:26:28.277Z,18.83
2019-03-23T13:27:35.037Z,18.86
2019-03-23T13:28:42.217Z,18.88
2019-03-23T13:29:49.604Z,18.89
2019-03-23T13:30:55.858Z,18.89
2019-03-23T13:32:02.605Z,18.91
2019-03-23T13:33:08.990Z,18.93
2019-03-23T13:34:15.298Z,18.96
2019-03-23T13:35:21.978Z,18.94
2019-03-23T13:36:28.827Z,18.92
2019-03-23T13:37:35.667Z,18.92
2019-03-23T13:38:43.407Z,18.92
2019-03-23T13:39:57.117Z,18.91
2019-03-23T13:41:24.226Z,18.90
2019-03-23T13:42:31.487Z,18.94
2019-03-23T13:43:40.044Z,18.98
2019-03-23T13:44:45.895Z,19.06
2019-03-23T13:45:53.128Z,19.12
2019-03-23T13:47:00.847Z,19.17
2019-03-23T13:48:06.783Z,19.20
2019-03-23T13:49:13.894Z,19.18
2019-03-23T13:50:32.947Z,19.17
2019-03-23T13:51:40.008Z,19.20
2019-03-23T13:52:48.334Z,19.24
2019-03-23T13:53:54.687Z,19.31
2019-03-23T13:55:00.776Z,19.34
2019-03-23T13:56:07.829Z,19.35
2019-03-23T13:57:16.807Z,19.35
2019-03-23T13:58:23.348Z,19.35
2019-03-23T13:59:31.828Z,19.31
2019-03-23T14:00:38.847Z,19.27
2019-03-23T14:01:46.054Z,19.26
2019-03-23T14:02:54.014Z,19.24
2019-03-23T14:04:00.895Z,19.23
2019-03-23T14:05:16.144Z,19.25
2019-03-23T14:06:20.294Z,19.31
2019-03-23T14:07:27.059Z,19.32
2019-03-23T14:08:34.328Z,19.29
2019-03-23T14:09:41.707Z,19.32
2019-03-23T14:10:49.213Z,19.39
2019-03-23T14:11:55.847Z,19.38
2019-03-23T14:13:03.368Z,19.40
2019-03-23T14:14:10.407Z,19.45
2019-03-23T14:15:17.596Z,19.45
2019-03-23T14:16:26.571Z,19.41
2019-03-23T14:17:33.388Z,19.41
2019-03-23T14:18:40.168Z,19.39
2019-03-23T14:19:50.099Z,19.34
2019-03-23T14:20:58.095Z,19.30
2019-03-23T14:22:06.375Z,19.29
2019-03-23T14:23:12.788Z,19.31
2019-03-23T14:24:21.416Z,19.34
2019-03-23T14:25:28.287Z,19.35
2019-03-23T14:26:34.848Z,19.34
2019-03-23T14:27:42.815Z,19.37
2019-03-23T14:28:49.990Z,19.38
2019-03-23T14:29:56.616Z,19.36
2019-03-23T14:31:02.636Z,19.37
2019-03-23T14:32:10.774Z,19.35
2019-03-23T14:33:17.677Z,19.34
2019-03-23T14:34:24.295Z,19.31
2019-03-23T14:35:31.575Z,19.27
2019-03-23T14:36:40.416Z,19.21
2019-03-23T14:37:48.363Z,19.20
2019-03-23T14:38:55.663Z,19.17
2019-03-23T14:40:01.989Z,19.15